Time;durP1;ratioP1;P1;durP2;ratioP2;P2;SDS_P1;SDS_P2;PMS_P1;PMS_P2;Temp;Humidity;BMP_temperature;BMP_pressure;BME280_temperature;BME280_humidity;BME280_pressure;Samples;Min_cycle;Max_cycle;Signal;HPM_P1;HPM_P2
2021/09/12 00:02:13;;;;;;;13.10;11.47;;;14.30;99.90;;;;;;5091308;28;20445;-65
2021/09/12 00:04:40;;;;;;;14.23;11.70;;;14.40;99.90;;;;;;5091209;28;20502;-66
2021/09/12 00:07:07;;;;;;;16.13;10.90;;;14.30;99.90;;;;;;5091614;28;20448;-66
2021/09/12 00:09:34;;;;;;;13.93;11.77;;;14.20;99.90;;;;;;5091675;28;20808;-66
2021/09/12 00:12:02;;;;;;;14.00;12.20;;;14.20;99.90;;;;;;5091214;28;20587;-66
2021/09/12 00:14:28;;;;;;;14.23;11.60;;;14.20;99.90;;;;;;5091121;28;21071;-65
2021/09/12 00:16:55;;;;;;;16.10;13.10;;;14.20;99.90;;;;;;5091191;28;20442;-65
2021/09/12 00:19:24;;;;;;;14.97;12.53;;;14.30;99.90;;;;;;5091784;28;20892;-67
2021/09/12 00:21:51;;;;;;;14.60;11.70;;;14.30;99.90;;;;;;5091405;28;20438;-66
2021/09/12 00:24:18;;;;;;;14.37;12.87;;;14.30;99.90;;;;;;5091413;28;20482;-66
2021/09/12 00:26:45;;;;;;;13.47;12.03;;;14.30;99.90;;;;;;5091025;28;20440;-66
2021/09/12 00:29:12;;;;;;;12.13;10.93;;;14.20;99.90;;;;;;5090906;28;20449;-66
2021/09/12 00:31:39;;;;;;;16.50;11.70;;;14.10;99.90;;;;;;5090376;28;20533;-66
2021/09/12 00:34:06;;;;;;;14.60;12.00;;;14.20;99.90;;;;;;5091007;28;20454;-67
2021/09/12 00:36:34;;;;;;;12.60;11.30;;;14.10;99.90;;;;;;5091044;28;20977;-66
2021/09/12 00:39:01;;;;;;;13.53;12.13;;;14.10;99.90;;;;;;5091012;28;20438;-65
2021/09/12 00:41:33;;;;;;;13.93;11.97;;;14.10;99.90;;;;;;5090701;28;20529;-66
2021/09/12 00:44:01;;;;;;;17.20;12.87;;;14.10;99.90;;;;;;5090859;28;20991;-66
2021/09/12 00:46:28;;;;;;;16.13;11.90;;;14.10;99.90;;;;;;5091060;28;20442;-66
2021/09/12 00:48:55;;;;;;;16.23;13.53;;;14.00;99.90;;;;;;5090254;28;20819;-64
2021/09/12 00:51:22;;;;;;;13.90;11.80;;;14.00;99.90;;;;;;5090650;28;20448;-65
2021/09/12 00:53:52;;;;;;;20.50;14.07;;;14.00;99.90;;;;;;5090341;28;20540;-65
2021/09/12 00:56:19;;;;;;;17.53;13.70;;;13.90;99.90;;;;;;5090782;28;20437;-65
2021/09/12 00:58:47;;;;;;;17.03;11.80;;;13.90;99.90;;;;;;5090451;28;20448;-65
2021/09/12 01:01:15;;;;;;;15.20;11.80;;;13.90;99.90;;;;;;5090726;28;20453;-65
2021/09/12 01:03:42;;;;;;;13.93;11.90;;;13.80;99.90;;;;;;5090474;28;20478;-65
2021/09/12 01:06:09;;;;;;;12.97;11.67;;;13.90;99.90;;;;;;5090424;28;20811;-68
2021/09/12 01:08:36;;;;;;;15.10;13.50;;;13.90;99.90;;;;;;5090839;28;20442;-65
2021/09/12 01:11:04;;;;;;;22.20;14.90;;;13.90;99.90;;;;;;5090431;28;20442;-65
2021/09/12 01:13:36;;;;;;;14.80;12.50;;;14.00;99.90;;;;;;5090936;28;21173;-65
2021/09/12 01:16:10;;;;;;;15.30;12.83;;;14.00;99.90;;;;;;5090625;28;20841;-66
2021/09/12 01:18:37;;;;;;;16.80;14.30;;;14.10;99.90;;;;;;5090524;28;20477;-65
2021/09/12 01:21:04;;;;;;;17.57;12.37;;;14.10;99.90;;;;;;5090056;28;20456;-65
2021/09/12 01:23:31;;;;;;;15.03;13.30;;;14.00;99.90;;;;;;5089936;28;20474;-65
2021/09/12 01:25:59;;;;;;;15.90;13.07;;;13.90;99.90;;;;;;5090035;28;20472;-66
2021/09/12 01:28:26;;;;;;;27.50;14.73;;;13.90;99.90;;;;;;5090481;28;20446;-66
2021/09/12 01:30:53;;;;;;;14.40;11.63;;;13.90;99.90;;;;;;5090360;28;20537;-65
2021/09/12 01:33:20;;;;;;;14.40;12.10;;;13.80;99.90;;;;;;5090143;28;20452;-65
2021/09/12 01:35:47;;;;;;;14.80;12.20;;;13.70;99.90;;;;;;5090047;28;20472;-65
2021/09/12 01:38:13;;;;;;;17.17;14.13;;;13.70;99.90;;;;;;5089841;28;20536;-65
2021/09/12 01:40:40;;;;;;;19.30;15.03;;;13.60;99.90;;;;;;5090226;28;20541;-65
2021/09/12 01:43:09;;;;;;;20.27;15.37;;;13.80;99.90;;;;;;5089491;28;20954;-65
2021/09/12 01:45:35;;;;;;;21.03;16.07;;;13.90;99.90;;;;;;5089647;28;20497;-65
2021/09/12 01:48:03;;;;;;;23.20;16.27;;;13.90;99.90;;;;;;5089907;28;20446;-66
2021/09/12 01:50:30;;;;;;;23.03;16.50;;;13.90;99.90;;;;;;5090042;28;20446;-65
2021/09/12 01:52:57;;;;;;;19.83;16.20;;;14.10;99.90;;;;;;5089449;28;20446;-65
2021/09/12 01:55:24;;;;;;;20.53;15.10;;;14.10;99.90;;;;;;5089905;28;20498;-65
2021/09/12 01:57:50;;;;;;;20.20;14.60;;;14.00;99.90;;;;;;5090083;28;20442;-65
2021/09/12 02:00:19;;;;;;;15.10;12.50;;;14.00;99.90;;;;;;5091471;28;21132;-65
2021/09/12 02:02:46;;;;;;;24.70;14.77;;;14.00;99.90;;;;;;5093262;28;20438;-65
2021/09/12 02:05:13;;;;;;;19.23;14.10;;;13.90;99.90;;;;;;5093358;28;20485;-65
2021/09/12 02:07:39;;;;;;;17.73;13.03;;;13.80;99.90;;;;;;5093494;28;20442;-65
2021/09/12 02:10:07;;;;;;;15.70;12.17;;;13.70;99.90;;;;;;5093362;28;20448;-65
2021/09/12 02:12:34;;;;;;;14.63;12.40;;;13.60;99.90;;;;;;5093406;28;20446;-65
2021/09/12 02:15:01;;;;;;;15.37;11.73;;;13.50;99.90;;;;;;5093190;28;20545;-65
2021/09/12 02:17:29;;;;;;;15.67;12.17;;;13.40;99.90;;;;;;5093394;28;20446;-65
2021/09/12 02:19:56;;;;;;;13.80;11.43;;;13.40;99.90;;;;;;5093165;28;20528;-65
2021/09/12 02:22:23;;;;;;;17.57;12.40;;;13.30;99.90;;;;;;5093023;28;20507;-65
2021/09/12 02:24:50;;;;;;;21.10;12.50;;;13.30;99.90;;;;;;5093185;28;21082;-65
2021/09/12 02:27:16;;;;;;;18.97;11.60;;;13.20;99.90;;;;;;5093522;28;20447;-65
2021/09/12 02:29:43;;;;;;;13.60;12.10;;;13.20;99.90;;;;;;5092674;28;20963;-65
2021/09/12 02:32:10;;;;;;;20.23;14.03;;;13.20;99.90;;;;;;5092754;28;20453;-65
2021/09/12 02:34:38;;;;;;;16.80;13.10;;;13.20;99.90;;;;;;5092408;28;20468;-65
2021/09/12 02:37:05;;;;;;;15.70;12.67;;;13.30;99.90;;;;;;5092971;28;20446;-65
2021/09/12 02:39:32;;;;;;;17.27;12.10;;;13.20;99.90;;;;;;5092904;28;20449;-65
2021/09/12 02:41:59;;;;;;;16.60;11.70;;;13.30;99.90;;;;;;5092262;28;20450;-65
2021/09/12 02:44:26;;;;;;;18.10;11.30;;;13.20;99.90;;;;;;5092626;28;21000;-65
2021/09/12 02:46:52;;;;;;;14.20;10.90;;;13.30;99.90;;;;;;5092436;28;20450;-65
2021/09/12 02:49:19;;;;;;;21.10;11.90;;;13.20;99.90;;;;;;5092549;28;20478;-65
2021/09/12 02:51:47;;;;;;;18.30;14.00;;;13.10;99.90;;;;;;5092097;28;20452;-65
2021/09/12 02:54:14;;;;;;;24.93;15.70;;;13.10;99.90;;;;;;5092415;28;20462;-65
2021/09/12 02:56:41;;;;;;;21.80;16.13;;;13.20;99.90;;;;;;5092379;28;20542;-65
2021/09/12 02:59:08;;;;;;;21.93;15.43;;;13.20;99.90;;;;;;5092240;28;20454;-65
2021/09/12 03:01:35;;;;;;;25.23;15.80;;;13.20;99.90;;;;;;5091766;28;20474;-65
2021/09/12 03:04:01;;;;;;;23.80;13.87;;;13.10;99.90;;;;;;5092189;28;20485;-65
2021/09/12 03:06:28;;;;;;;37.17;14.13;;;13.10;99.90;;;;;;5091988;28;21183;-65
2021/09/12 03:08:57;;;;;;;29.80;13.47;;;13.10;99.90;;;;;;5092472;28;20442;-65
2021/09/12 03:11:24;;;;;;;19.87;14.20;;;13.10;99.90;;;;;;5091760;28;20555;-65
2021/09/12 03:13:51;;;;;;;18.73;13.20;;;13.00;99.90;;;;;;5091739;28;20438;-65
2021/09/12 03:16:18;;;;;;;21.73;12.10;;;13.00;99.90;;;;;;5091841;28;20460;-65
2021/09/12 03:18:45;;;;;;;16.53;10.90;;;13.00;99.90;;;;;;5091957;28;20545;-65
2021/09/12 03:21:12;;;;;;;18.03;12.13;;;13.00;99.90;;;;;;5091828;28;20457;-65
2021/09/12 03:23:40;;;;;;;13.70;10.73;;;12.90;99.90;;;;;;5091483;28;20529;-65
2021/09/12 03:26:08;;;;;;;15.70;10.83;;;12.80;99.90;;;;;;5091635;28;21209;-65
2021/09/12 03:28:35;;;;;;;11.73;10.30;;;12.70;99.90;;;;;;5091576;28;20450;-65
2021/09/12 03:31:02;;;;;;;13.73;10.10;;;12.80;99.90;;;;;;5091580;28;20469;-65
2021/09/12 03:33:29;;;;;;;15.70;10.57;;;12.80;99.90;;;;;;5091245;28;20836;-66
2021/09/12 03:35:55;;;;;;;14.03;10.33;;;12.80;99.90;;;;;;5092106;28;20467;-65
2021/09/12 03:38:22;;;;;;;11.83;10.03;;;12.80;99.90;;;;;;5091838;28;20452;-65
2021/09/12 03:40:49;;;;;;;14.50;12.43;;;12.70;99.90;;;;;;5092020;28;21130;-67
2021/09/12 03:43:17;;;;;;;19.43;12.60;;;12.60;99.90;;;;;;5091478;28;20446;-66
2021/09/12 03:45:44;;;;;;;21.23;12.60;;;12.60;99.90;;;;;;5091722;28;20482;-66
2021/09/12 03:48:11;;;;;;;20.43;11.70;;;12.60;99.90;;;;;;5091637;28;20895;-66
2021/09/12 03:50:38;;;;;;;14.73;11.30;;;12.60;99.90;;;;;;5091524;28;20454;-67
2021/09/12 03:53:05;;;;;;;13.93;11.57;;;12.60;99.90;;;;;;5091088;28;20970;-65
2021/09/12 03:55:32;;;;;;;14.53;11.27;;;12.50;99.90;;;;;;5091215;28;20458;-65
2021/09/12 03:57:58;;;;;;;13.90;10.87;;;12.60;99.90;;;;;;5091120;28;20478;-66
2021/09/12 04:00:27;;;;;;;13.00;10.80;;;12.50;99.90;;;;;;5090998;28;21127;-66
2021/09/12 04:02:53;;;;;;;15.33;11.00;;;12.40;99.90;;;;;;5091082;28;20450;-66
2021/09/12 04:05:20;;;;;;;11.87;10.13;;;12.40;99.90;;;;;;5090593;28;21003;-66
2021/09/12 04:07:47;;;;;;;12.07;10.50;;;12.30;99.90;;;;;;5090981;28;20962;-65
2021/09/12 04:10:14;;;;;;;35.70;13.33;;;12.30;99.90;;;;;;5090920;28;20452;-66
2021/09/12 04:12:41;;;;;;;22.13;12.73;;;12.20;99.90;;;;;;5090911;28;20442;-66
2021/09/12 04:15:08;;;;;;;26.00;13.10;;;12.30;99.90;;;;;;5091050;28;20458;-66
2021/09/12 04:17:36;;;;;;;18.33;12.53;;;12.30;99.90;;;;;;5090609;28;20781;-66
2021/09/12 04:20:04;;;;;;;34.10;13.00;;;12.30;99.90;;;;;;5090833;28;20446;-66
2021/09/12 04:22:31;;;;;;;41.33;13.43;;;12.30;99.90;;;;;;5089827;28;20434;-66
2021/09/12 04:24:58;;;;;;;34.83;12.00;;;12.30;99.90;;;;;;5090538;28;20478;-66
2021/09/12 04:27:25;;;;;;;19.77;11.30;;;12.30;99.90;;;;;;5090984;28;20928;-66
2021/09/12 04:29:52;;;;;;;18.77;11.20;;;12.30;99.90;;;;;;5090934;28;20444;-65
2021/09/12 04:32:18;;;;;;;13.50;9.60;;;12.30;99.90;;;;;;5090494;28;20443;-66
2021/09/12 04:34:47;;;;;;;15.93;9.73;;;12.20;99.90;;;;;;5090893;28;20450;-65
2021/09/12 04:37:14;;;;;;;12.50;10.00;;;12.20;99.90;;;;;;5090713;28;20920;-66
2021/09/12 04:39:41;;;;;;;16.70;11.60;;;12.20;99.90;;;;;;5090499;28;20449;-66
2021/09/12 04:42:09;;;;;;;36.00;12.87;;;12.20;99.90;;;;;;5090421;28;20446;-65
2021/09/12 04:44:36;;;;;;;108.23;17.30;;;12.20;99.90;;;;;;5090262;28;20478;-67
2021/09/12 04:47:03;;;;;;;65.87;15.53;;;12.20;99.90;;;;;;5090611;28;20448;-67
2021/09/12 04:49:30;;;;;;;42.50;15.07;;;12.20;99.90;;;;;;5090286;28;20446;-67
2021/09/12 04:51:58;;;;;;;28.20;14.23;;;12.20;99.90;;;;;;5090195;28;20811;-66
2021/09/12 04:54:25;;;;;;;28.43;13.20;;;12.20;99.90;;;;;;5090633;28;20485;-66
2021/09/12 04:56:52;;;;;;;17.97;12.13;;;12.20;99.90;;;;;;5090652;28;20442;-67
2021/09/12 04:59:19;;;;;;;17.57;12.30;;;12.10;99.90;;;;;;5090536;28;20438;-66
2021/09/12 05:01:46;;;;;;;17.93;12.27;;;12.10;99.90;;;;;;5090009;28;20450;-65
2021/09/12 05:04:13;;;;;;;15.20;11.27;;;12.20;99.90;;;;;;5089913;28;20462;-67
2021/09/12 05:06:40;;;;;;;17.83;11.00;;;12.30;99.90;;;;;;5089933;28;20450;-65
2021/09/12 05:09:08;;;;;;;14.57;10.33;;;12.40;99.90;;;;;;5090109;28;20519;-66
2021/09/12 05:11:35;;;;;;;14.03;9.90;;;12.50;99.90;;;;;;5090007;28;20441;-66
2021/09/12 05:14:01;;;;;;;13.47;10.33;;;12.60;99.90;;;;;;5090229;28;20859;-66
2021/09/12 05:16:28;;;;;;;13.87;10.17;;;12.70;99.90;;;;;;5090094;28;20525;-66
2021/09/12 05:18:55;;;;;;;14.27;9.63;;;12.70;99.90;;;;;;5089857;28;20931;-66
2021/09/12 05:21:22;;;;;;;12.67;9.40;;;12.80;99.90;;;;;;5089856;28;20438;-65
2021/09/12 05:23:49;;;;;;;15.30;11.47;;;12.90;99.90;;;;;;5089822;28;20434;-66
2021/09/12 05:26:17;;;;;;;12.33;10.13;;;12.90;99.90;;;;;;5089751;28;21178;-66
2021/09/12 05:28:44;;;;;;;16.67;11.53;;;12.90;99.90;;;;;;5089819;28;20441;-66
2021/09/12 05:31:12;;;;;;;15.97;11.23;;;12.90;99.90;;;;;;5089628;28;20439;-67
2021/09/12 05:33:39;;;;;;;19.70;13.30;;;13.00;99.90;;;;;;5090024;28;20473;-66
2021/09/12 05:36:06;;;;;;;16.37;12.87;;;13.20;99.90;;;;;;5093617;28;20450;-66
2021/09/12 05:38:33;;;;;;;24.00;15.20;;;13.30;99.90;;;;;;5093695;28;20534;-66
2021/09/12 05:40:59;;;;;;;38.33;15.70;;;13.50;99.90;;;;;;5093789;28;20464;-66
2021/09/12 05:43:28;;;;;;;24.10;13.87;;;13.50;99.90;;;;;;5093553;28;20444;-66
2021/09/12 05:45:54;;;;;;;38.40;15.93;;;13.60;99.90;;;;;;5093315;28;20477;-66
2021/09/12 05:48:22;;;;;;;28.70;15.27;;;13.60;99.90;;;;;;5093410;28;20448;-66
2021/09/12 05:50:49;;;;;;;29.17;15.73;;;13.80;99.90;;;;;;5093449;28;21186;-66
2021/09/12 05:53:18;;;;;;;23.90;14.97;;;14.00;99.90;;;;;;5093385;28;20440;-66
2021/09/12 05:55:45;;;;;;;25.10;14.20;;;14.20;99.90;;;;;;5093283;28;20462;-66
2021/09/12 05:58:12;;;;;;;26.40;16.30;;;14.30;99.90;;;;;;5093515;28;20449;-66
2021/09/12 06:00:40;;;;;;;31.83;16.73;;;14.40;99.90;;;;;;5093310;28;20951;-66
2021/09/12 06:03:07;;;;;;;36.23;16.37;;;14.50;99.90;;;;;;5093141;28;20521;-66
2021/09/12 06:05:34;;;;;;;32.37;16.33;;;14.60;99.90;;;;;;5093122;28;20983;-66
2021/09/12 06:08:01;;;;;;;18.90;13.73;;;14.70;99.90;;;;;;5093371;28;20452;-66
2021/09/12 06:10:27;;;;;;;32.17;16.40;;;14.70;99.90;;;;;;5093328;28;20471;-66
2021/09/12 06:12:54;;;;;;;23.50;15.57;;;14.90;99.90;;;;;;5093114;28;20436;-66
2021/09/12 06:15:21;;;;;;;24.30;17.80;;;14.90;99.90;;;;;;5093413;28;20808;-66
2021/09/12 06:17:49;;;;;;;22.07;16.13;;;15.10;99.90;;;;;;5093261;28;20441;-66
2021/09/12 06:20:16;;;;;;;22.87;14.80;;;15.20;99.90;;;;;;5093418;28;20442;-66
2021/09/12 06:22:44;;;;;;;29.50;15.63;;;15.30;99.90;;;;;;5092917;28;20438;-66
2021/09/12 06:25:12;;;;;;;20.03;14.90;;;15.40;99.90;;;;;;5093062;28;20570;-66
2021/09/12 06:27:39;;;;;;;21.70;14.00;;;15.40;99.90;;;;;;5093131;28;20434;-66
2021/09/12 06:30:09;;;;;;;15.43;12.53;;;15.50;99.90;;;;;;5093001;28;20881;-66
2021/09/12 06:32:36;;;;;;;18.50;14.13;;;15.50;99.90;;;;;;5092853;28;20570;-66
2021/09/12 06:35:05;;;;;;;16.03;13.27;;;15.40;99.90;;;;;;5093135;28;20460;-66
2021/09/12 06:37:32;;;;;;;17.80;13.70;;;15.50;99.90;;;;;;5092746;28;20430;-66
2021/09/12 06:39:59;;;;;;;18.30;14.53;;;15.60;99.90;;;;;;5092530;28;20812;-66
2021/09/12 06:42:26;;;;;;;17.47;15.57;;;15.70;99.90;;;;;;5092303;28;20430;-66
2021/09/12 06:44:53;;;;;;;15.97;14.23;;;15.60;99.90;;;;;;5092436;28;20553;-66
2021/09/12 06:47:20;;;;;;;15.23;13.63;;;15.70;99.90;;;;;;5091844;28;20517;-66
2021/09/12 06:49:47;;;;;;;15.60;14.07;;;15.70;99.90;;;;;;5092391;28;20438;-66
2021/09/12 06:52:15;;;;;;;14.43;13.00;;;15.50;99.90;;;;;;5091883;28;20442;-66
2021/09/12 06:54:42;;;;;;;14.87;13.23;;;15.40;99.90;;;;;;5092007;28;20488;-66
2021/09/12 06:57:09;;;;;;;15.77;14.07;;;15.40;99.90;;;;;;5092101;28;21134;-66
2021/09/12 06:59:36;;;;;;;15.37;13.87;;;15.50;99.90;;;;;;5091955;28;20430;-66
2021/09/12 07:02:04;;;;;;;16.90;15.17;;;15.60;99.90;;;;;;5091915;28;20456;-66
2021/09/12 07:04:31;;;;;;;17.77;14.30;;;15.50;99.90;;;;;;5091961;28;20527;-67
2021/09/12 07:06:57;;;;;;;15.67;14.03;;;15.50;99.90;;;;;;5091807;28;20481;-66
2021/09/12 07:09:26;;;;;;;16.43;14.77;;;15.50;99.90;;;;;;5091741;28;20954;-66
2021/09/12 07:11:53;;;;;;;16.37;14.63;;;15.50;99.90;;;;;;5091595;28;20430;-66
2021/09/12 07:14:20;;;;;;;14.47;12.97;;;15.30;99.90;;;;;;5091633;28;20495;-67
2021/09/12 07:16:46;;;;;;;17.10;14.20;;;15.20;99.90;;;;;;5091711;28;20529;-67
2021/09/12 07:19:13;;;;;;;15.33;13.67;;;15.30;99.90;;;;;;5091705;28;20446;-67
2021/09/12 07:21:41;;;;;;;16.53;14.87;;;15.30;99.90;;;;;;5091235;28;20889;-67
2021/09/12 07:24:07;;;;;;;16.27;14.57;;;15.40;99.90;;;;;;5091431;28;20458;-67
2021/09/12 07:26:36;;;;;;;19.30;13.80;;;15.50;99.90;;;;;;5091773;28;20473;-70
2021/09/12 07:29:03;;;;;;;15.80;13.87;;;15.70;99.90;;;;;;5093005;28;20434;-67
2021/09/12 07:31:30;;;;;;;14.57;13.07;;;15.90;99.90;;;;;;5092685;28;20446;-66
2021/09/12 07:33:57;;;;;;;13.70;12.30;;;16.10;99.90;;;;;;5092484;28;20529;-71
2021/09/12 07:36:24;;;;;;;18.53;13.10;;;16.10;99.90;;;;;;5096722;28;20446;-65
2021/09/12 07:38:51;;;;;;;14.70;12.57;;;16.10;99.90;;;;;;5100317;28;20514;-65
2021/09/12 07:41:17;;;;;;;15.43;12.93;;;16.10;99.90;;;;;;5101188;28;20485;-65
2021/09/12 07:43:45;;;;;;;12.90;11.60;;;16.20;99.90;;;;;;5098764;28;20843;-65
2021/09/12 07:46:12;;;;;;;13.00;11.70;;;16.20;99.90;;;;;;5097067;28;20474;-66
2021/09/12 07:48:39;;;;;;;10.83;9.83;;;16.30;99.90;;;;;;5093727;28;20465;-65
2021/09/12 07:51:06;;;;;;;11.17;10.07;;;16.30;99.90;;;;;;5093846;28;20928;-66
2021/09/12 07:53:33;;;;;;;8.73;7.83;;;16.40;99.90;;;;;;5092311;28;21274;-65
2021/09/12 07:56:00;;;;;;;9.00;8.10;;;16.40;99.90;;;;;;5096200;28;20529;-65
2021/09/12 07:58:27;;;;;;;8.90;7.83;;;16.40;99.90;;;;;;5093638;28;20445;-64
2021/09/12 08:00:55;;;;;;;9.68;8.07;;;16.50;99.90;;;;;;5092468;28;20903;-64
2021/09/12 08:03:22;;;;;;;8.37;7.57;;;16.60;99.90;;;;;;5093257;28;20200;-65
2021/09/12 08:05:49;;;;;;;8.53;7.73;;;16.60;99.90;;;;;;5091057;28;20496;-65
2021/09/12 08:08:18;;;;;;;8.57;7.67;;;16.70;99.90;;;;;;5091814;28;20446;-64
2021/09/12 08:10:45;;;;;;;9.47;8.47;;;16.70;99.90;;;;;;5091483;28;20450;-65
2021/09/12 08:13:12;;;;;;;9.50;8.13;;;16.80;99.90;;;;;;5090668;28;20967;-65
2021/09/12 08:15:39;;;;;;;8.53;7.73;;;16.80;99.90;;;;;;5092070;28;20488;-64
2021/09/12 08:18:08;;;;;;;8.43;7.73;;;17.00;99.90;;;;;;5091520;28;20472;-65
2021/09/12 08:20:35;;;;;;;8.00;7.30;;;17.10;99.90;;;;;;5091769;28;20446;-65
2021/09/12 08:23:02;;;;;;;7.60;6.87;;;17.10;99.90;;;;;;5093059;28;20478;-64
2021/09/12 08:25:29;;;;;;;7.37;6.67;;;17.20;99.90;;;;;;5093646;28;20914;-65
2021/09/12 08:27:55;;;;;;;7.57;6.77;;;17.30;99.90;;;;;;5093491;28;20804;-64
2021/09/12 08:30:22;;;;;;;7.97;7.17;;;17.40;99.90;;;;;;5092949;28;20450;-66
2021/09/12 08:32:49;;;;;;;6.90;6.27;;;17.50;99.90;;;;;;5086475;28;20443;-65
2021/09/12 08:35:18;;;;;;;8.17;5.57;;;17.60;99.90;;;;;;5087752;28;20545;-64
2021/09/12 08:37:45;;;;;;;6.77;6.07;;;17.70;99.90;;;;;;5078182;28;20439;-65
2021/09/12 08:40:12;;;;;;;7.67;5.80;;;17.60;99.90;;;;;;5078327;28;20533;-64
2021/09/12 08:42:42;;;;;;;7.27;5.73;;;17.70;99.90;;;;;;5080797;28;20453;-65
2021/09/12 08:45:10;;;;;;;6.33;5.73;;;17.80;99.90;;;;;;5082072;28;20497;-65
2021/09/12 08:47:37;;;;;;;7.00;5.40;;;17.90;99.90;;;;;;5079007;28;20470;-65
2021/09/12 08:50:05;;;;;;;8.17;6.67;;;18.10;99.90;;;;;;5080158;28;20545;-65
2021/09/12 08:52:33;;;;;;;6.63;5.77;;;18.20;99.90;;;;;;5078190;28;20450;-65
2021/09/12 08:55:00;;;;;;;6.37;5.77;;;18.40;99.90;;;;;;5077071;28;20923;-66
2021/09/12 08:57:27;;;;;;;5.70;5.10;;;18.50;99.90;;;;;;5080334;28;20446;-65
2021/09/12 08:59:53;;;;;;;6.47;5.60;;;18.70;99.90;;;;;;5074244;28;20810;-65
2021/09/12 09:02:26;;;;;;;5.30;4.80;;;18.80;99.90;;;;;;5079421;28;20447;-66
2021/09/12 09:05:02;;;;;;;5.53;5.03;;;19.00;99.90;;;;;;5084869;28;20853;-65
2021/09/12 09:07:29;;;;;;;5.80;5.10;;;19.10;99.90;;;;;;5079274;28;20482;-65
2021/09/12 09:09:58;;;;;;;4.97;4.47;;;19.40;99.90;;;;;;5078507;28;20453;-65
2021/09/12 09:12:32;;;;;;;4.50;4.10;;;19.80;99.90;;;;;;5076525;28;20566;-64
2021/09/12 09:15:10;;;;;;;4.70;4.23;;;20.20;99.90;;;;;;5075501;28;20467;-65
2021/09/12 09:17:41;;;;;;;5.03;4.53;;;20.70;99.90;;;;;;5081000;28;20446;-65
2021/09/12 09:20:09;;;;;;;4.43;3.77;;;21.10;99.90;;;;;;5082653;28;20454;-65
2021/09/12 09:22:38;;;;;;;3.90;3.40;;;21.50;99.90;;;;;;5076881;28;20988;-65
2021/09/12 09:25:12;;;;;;;4.17;3.77;;;22.00;99.90;;;;;;5074417;28;20479;-66
2021/09/12 09:28:03;;;;;;;4.10;3.70;;;22.50;99.90;;;;;;5072663;28;20860;-65
2021/09/12 09:30:33;;;;;;;4.20;3.80;;;22.90;99.90;;;;;;5074205;28;20466;-65
2021/09/12 09:33:16;;;;;;;4.33;3.00;;;23.30;99.90;;;;;;5072541;28;20534;-65
2021/09/12 09:35:51;;;;;;;5.00;4.10;;;23.50;99.90;;;;;;5072615;28;20467;-65
2021/09/12 09:38:18;;;;;;;3.90;3.60;;;23.70;99.90;;;;;;5075664;28;20449;-65
2021/09/12 09:41:05;;;;;;;4.20;3.80;;;24.00;99.90;;;;;;5073669;28;20469;-66
2021/09/12 09:43:39;;;;;;;4.10;3.70;;;23.70;99.90;;;;;;5074952;28;21019;-65
2021/09/12 09:46:07;;;;;;;4.70;3.00;;;23.80;99.90;;;;;;5072542;28;20494;-65
2021/09/12 09:48:35;;;;;;;4.00;2.53;;;24.30;99.90;;;;;;5072131;28;20530;-65
2021/09/12 09:51:03;;;;;;;3.23;2.10;;;24.50;99.90;;;;;;5073521;28;20454;-65
2021/09/12 09:53:35;;;;;;;2.83;1.90;;;24.60;99.90;;;;;;5077430;28;20439;-65
2021/09/12 09:56:05;;;;;;;3.00;2.20;;;24.10;99.90;;;;;;5081069;28;20807;-65
2021/09/12 09:58:33;;;;;;;3.17;2.00;;;23.60;99.90;;;;;;5085900;28;20453;-64
2021/09/12 10:01:01;;;;;;;2.90;2.00;;;23.40;99.90;;;;;;5085051;28;20521;-65
2021/09/12 10:03:28;;;;;;;2.73;2.03;;;23.60;99.90;;;;;;5091480;28;20559;-64
2021/09/12 10:05:55;;;;;;;2.63;2.00;;;23.90;99.90;;;;;;5083888;28;20477;-65
2021/09/12 10:08:23;;;;;;;2.70;1.90;;;23.70;99.90;;;;;;5072430;28;20530;-65
2021/09/12 10:10:50;;;;;;;3.10;1.83;;;23.50;99.90;;;;;;5067479;28;20455;-66
2021/09/12 10:13:22;;;;;;;5.00;2.10;;;23.40;99.90;;;;;;5066769;28;20590;-68
2021/09/12 10:15:52;;;;;;;3.37;2.40;;;23.40;99.90;;;;;;5066884;28;20485;-65
2021/09/12 10:18:24;;;;;;;2.80;1.90;;;23.30;99.90;;;;;;5067036;28;21006;-65
2021/09/12 10:20:51;;;;;;;3.40;2.80;;;23.40;99.90;;;;;;5069998;28;20442;-64
2021/09/12 10:23:18;;;;;;;3.57;2.40;;;23.30;99.90;;;;;;5082637;28;20445;-64
2021/09/12 10:25:58;;;;;;;4.33;2.30;;;23.40;99.90;;;;;;5078856;28;20472;-64
2021/09/12 10:28:31;;;;;;;2.73;1.90;;;23.50;99.90;;;;;;5074740;28;20525;-64
2021/09/12 10:30:59;;;;;;;3.10;2.10;;;23.90;99.90;;;;;;5079038;28;20819;-65
2021/09/12 10:33:27;;;;;;;5.87;2.07;;;24.00;99.90;;;;;;5090356;28;20474;-66
2021/09/12 10:35:57;;;;;;;4.40;2.20;;;24.40;99.90;;;;;;5086750;28;20905;-67
2021/09/12 10:38:27;;;;;;;3.20;2.13;;;24.70;99.90;;;;;;5087655;28;20501;-67
2021/09/12 10:41:13;;;;;;;3.53;2.13;;;25.00;99.90;;;;;;5080249;28;21374;-67
2021/09/12 10:43:52;;;;;;;4.33;2.60;;;25.10;99.20;;;;;;5080610;28;20460;-67
2021/09/12 10:46:23;;;;;;;6.23;2.30;;;25.30;99.50;;;;;;5079128;28;20963;-64
2021/09/12 10:49:17;;;;;;;2.80;1.80;;;25.40;99.90;;;;;;5079155;28;20522;-64
2021/09/12 10:51:49;;;;;;;4.23;2.10;;;25.10;99.70;;;;;;5043047;28;20456;-69
2021/09/12 10:54:16;;;;;;;3.17;2.27;;;25.30;99.50;;;;;;5086583;28;20478;-64
2021/09/12 10:56:43;;;;;;;4.40;2.70;;;25.70;99.90;;;;;;5087886;28;20477;-65
2021/09/12 10:59:14;;;;;;;4.63;2.97;;;26.10;98.10;;;;;;5078724;28;21206;-65
2021/09/12 11:01:45;;;;;;;3.20;2.30;;;26.20;96.90;;;;;;5078823;28;20454;-66
2021/09/12 11:04:14;;;;;;;3.07;2.07;;;26.80;97.50;;;;;;5086974;28;20840;-66
2021/09/12 11:06:43;;;;;;;3.37;2.00;;;27.50;96.00;;;;;;5088309;28;20476;-66
2021/09/12 11:09:19;;;;;;;3.63;2.27;;;28.00;95.00;;;;;;5079919;28;20445;-65
2021/09/12 11:11:47;;;;;;;3.13;2.13;;;28.00;94.90;;;;;;5071993;28;20533;-67
2021/09/12 11:14:20;;;;;;;4.57;2.37;;;28.40;94.80;;;;;;5072149;28;20545;-67
2021/09/12 11:16:50;;;;;;;3.40;2.00;;;28.50;93.40;;;;;;5073950;28;20501;-66
2021/09/12 11:19:18;;;;;;;3.63;2.10;;;29.10;94.60;;;;;;5072541;28;20517;-66
2021/09/12 11:21:46;;;;;;;3.20;1.93;;;30.00;93.10;;;;;;5071423;28;20455;-67
2021/09/12 11:24:15;;;;;;;3.77;1.97;;;30.90;90.90;;;;;;5071110;28;20474;-65
2021/09/12 11:26:45;;;;;;;3.43;2.13;;;31.20;86.00;;;;;;5071465;28;20471;-65
2021/09/12 11:29:13;;;;;;;3.10;2.03;;;31.30;88.20;;;;;;5071220;28;21123;-65
2021/09/12 11:31:44;;;;;;;3.43;2.03;;;31.70;88.70;;;;;;5070757;28;20451;-67
2021/09/12 11:34:12;;;;;;;2.97;2.10;;;32.30;84.40;;;;;;5071140;28;20844;-67
2021/09/12 11:36:45;;;;;;;4.00;1.97;;;32.30;88.00;;;;;;5072985;28;20533;-64
2021/09/12 11:39:12;;;;;;;2.60;1.73;;;32.10;78.90;;;;;;5082783;28;20450;-65
2021/09/12 11:41:41;;;;;;;3.37;2.20;;;31.70;81.10;;;;;;5088836;28;21007;-65
2021/09/12 11:44:08;;;;;;;3.20;1.77;;;32.00;81.50;;;;;;5084235;28;20854;-65
2021/09/12 11:46:36;;;;;;;3.40;2.13;;;32.40;80.50;;;;;;5088461;28;20443;-65
2021/09/12 11:49:06;;;;;;;2.83;2.03;;;33.00;75.80;;;;;;5090457;28;20897;-65
2021/09/12 11:51:34;;;;;;;3.13;1.83;;;32.50;77.60;;;;;;5075358;28;20447;-63
2021/09/12 11:54:10;;;;;;;2.60;1.60;;;32.60;78.10;;;;;;5073170;28;20449;-65
2021/09/12 11:56:37;;;;;;;3.10;2.50;;;32.90;80.40;;;;;;5075586;28;20899;-64
2021/09/12 11:59:06;;;;;;;3.70;2.20;;;32.50;75.50;;;;;;5075953;28;20477;-65
2021/09/12 12:01:34;;;;;;;3.40;2.20;;;30.90;80.00;;;;;;5072536;28;20526;-66
2021/09/12 12:04:05;;;;;;;3.17;2.33;;;30.60;87.40;;;;;;5080513;28;20471;-65
2021/09/12 12:06:33;;;;;;;3.00;2.70;;;31.60;81.90;;;;;;5079096;28;20465;-65
2021/09/12 12:09:11;;;;;;;3.10;2.67;;;30.30;78.30;;;;;;5084684;28;20478;-65
2021/09/12 12:11:40;;;;;;;4.60;2.07;;;29.60;85.50;;;;;;5089423;28;20442;-65
2021/09/12 12:14:17;;;;;;;3.30;1.87;;;29.10;87.80;;;;;;5087671;28;20972;-66
2021/09/12 12:16:44;;;;;;;3.17;2.07;;;28.70;89.20;;;;;;5078938;28;20465;-65
2021/09/12 12:19:14;;;;;;;3.57;2.00;;;29.40;86.60;;;;;;5080949;28;21048;-65
2021/09/12 12:21:44;;;;;;;3.07;2.10;;;30.60;82.50;;;;;;5086145;28;20443;-65
2021/09/12 12:24:13;;;;;;;2.90;2.20;;;31.20;79.70;;;;;;5073363;28;20467;-68
2021/09/12 12:26:42;;;;;;;3.00;2.03;;;31.20;79.20;;;;;;5071986;28;20450;-66
2021/09/12 12:29:09;;;;;;;3.47;2.80;;;30.60;79.30;;;;;;5077405;28;20443;-65
2021/09/12 12:31:38;;;;;;;3.63;2.77;;;29.60;80.90;;;;;;5075435;28;20447;-65
2021/09/12 12:34:05;;;;;;;3.33;2.63;;;29.60;84.10;;;;;;5084665;28;21256;-64
2021/09/12 12:36:34;;;;;;;2.80;2.30;;;30.60;82.20;;;;;;5086942;28;20539;-65
2021/09/12 12:39:16;;;;;;;4.10;2.37;;;30.40;79.50;;;;;;5078690;28;20521;-65
2021/09/12 12:41:55;;;;;;;3.00;2.23;;;30.80;83.20;;;;;;5085161;28;20448;-70